sensor_id;sensor_type;location;lat;lon;timestamp;temperature;humidity
47532;DHT22;33273;52.254;7.988;2023-06-19T00:01:23;22.20;41.20
47532;DHT22;33273;52.254;7.988;2023-06-19T00:03:49;22.20;41.60
47532;DHT22;33273;52.254;7.988;2023-06-19T00:06:15;22.20;42.10
47532;DHT22;33273;52.254;7.988;2023-06-19T00:08:41;22.10;41.80
47532;DHT22;33273;52.254;7.988;2023-06-19T00:11:08;22.00;41.80
47532;DHT22;33273;52.254;7.988;2023-06-19T00:13:33;22.00;42.40
47532;DHT22;33273;52.254;7.988;2023-06-19T00:16:00;22.00;42.40
47532;DHT22;33273;52.254;7.988;2023-06-19T00:18:30;21.90;42.20
47532;DHT22;33273;52.254;7.988;2023-06-19T00:20:56;21.80;41.20
47532;DHT22;33273;52.254;7.988;2023-06-19T00:23:24;21.80;42.20
47532;DHT22;33273;52.254;7.988;2023-06-19T00:25:50;21.80;41.50
47532;DHT22;33273;52.254;7.988;2023-06-19T00:28:16;21.80;41.00
47532;DHT22;33273;52.254;7.988;2023-06-19T00:30:45;21.80;40.60
47532;DHT22;33273;52.254;7.988;2023-06-19T00:33:13;21.90;41.10
47532;DHT22;33273;52.254;7.988;2023-06-19T00:35:39;21.80;40.60
47532;DHT22;33273;52.254;7.988;2023-06-19T00:38:07;21.90;40.20
47532;DHT22;33273;52.254;7.988;2023-06-19T00:40:34;21.90;41.00
47532;DHT22;33273;52.254;7.988;2023-06-19T00:43:00;22.00;41.10
47532;DHT22;33273;52.254;7.988;2023-06-19T00:45:28;21.90;42.50
47532;DHT22;33273;52.254;7.988;2023-06-19T00:47:57;21.80;42.30
47532;DHT22;33273;52.254;7.988;2023-06-19T00:50:24;21.80;41.70
47532;DHT22;33273;52.254;7.988;2023-06-19T00:52:51;21.90;41.60
47532;DHT22;33273;52.254;7.988;2023-06-19T00:55:18;21.90;41.50
47532;DHT22;33273;52.254;7.988;2023-06-19T00:57:46;21.90;40.90
47532;DHT22;33273;52.254;7.988;2023-06-19T01:00:12;21.90;40.40
47532;DHT22;33273;52.254;7.988;2023-06-19T01:02:39;22.00;39.50
47532;DHT22;33273;52.254;7.988;2023-06-19T01:05:06;22.10;39.40
47532;DHT22;33273;52.254;7.988;2023-06-19T01:07:45;22.00;39.00
47532;DHT22;33273;52.254;7.988;2023-06-19T01:10:16;22.10;38.90
47532;DHT22;33273;52.254;7.988;2023-06-19T01:12:55;22.10;39.80
47532;DHT22;33273;52.254;7.988;2023-06-19T01:15:23;22.10;40.20
47532;DHT22;33273;52.254;7.988;2023-06-19T01:17:49;22.20;41.20
47532;DHT22;33273;52.254;7.988;2023-06-19T01:20:16;22.20;39.00
47532;DHT22;33273;52.254;7.988;2023-06-19T01:22:43;22.20;38.60
47532;DHT22;33273;52.254;7.988;2023-06-19T01:25:10;22.10;38.80
47532;DHT22;33273;52.254;7.988;2023-06-19T01:27:40;22.20;38.70
47532;DHT22;33273;52.254;7.988;2023-06-19T01:30:09;22.20;38.10
47532;DHT22;33273;52.254;7.988;2023-06-19T01:35:19;22.30;39.40
47532;DHT22;33273;52.254;7.988;2023-06-19T01:37:47;22.20;42.00
47532;DHT22;33273;52.254;7.988;2023-06-19T01:40:15;22.10;42.50
47532;DHT22;33273;52.254;7.988;2023-06-19T01:42:44;22.00;43.30
47532;DHT22;33273;52.254;7.988;2023-06-19T01:45:10;22.00;43.40
47532;DHT22;33273;52.254;7.988;2023-06-19T01:47:36;21.90;44.00
47532;DHT22;33273;52.254;7.988;2023-06-19T01:50:03;21.80;44.50
47532;DHT22;33273;52.254;7.988;2023-06-19T01:52:30;21.80;44.60
47532;DHT22;33273;52.254;7.988;2023-06-19T01:54:56;21.80;44.30
47532;DHT22;33273;52.254;7.988;2023-06-19T01:57:23;21.80;44.00
47532;DHT22;33273;52.254;7.988;2023-06-19T01:59:49;21.80;43.30
47532;DHT22;33273;52.254;7.988;2023-06-19T02:02:15;21.80;42.70
47532;DHT22;33273;52.254;7.988;2023-06-19T02:04:41;21.80;42.60
47532;DHT22;33273;52.254;7.988;2023-06-19T02:07:07;21.80;41.60
47532;DHT22;33273;52.254;7.988;2023-06-19T02:09:33;21.90;41.30
47532;DHT22;33273;52.254;7.988;2023-06-19T02:11:59;21.80;41.30
47532;DHT22;33273;52.254;7.988;2023-06-19T02:14:26;21.80;41.50
47532;DHT22;33273;52.254;7.988;2023-06-19T02:16:52;21.70;41.60
47532;DHT22;33273;52.254;7.988;2023-06-19T02:19:17;21.70;41.60
47532;DHT22;33273;52.254;7.988;2023-06-19T02:21:43;21.70;42.00
47532;DHT22;33273;52.254;7.988;2023-06-19T02:24:09;21.70;42.20
47532;DHT22;33273;52.254;7.988;2023-06-19T02:26:36;21.70;42.70
47532;DHT22;33273;52.254;7.988;2023-06-19T02:29:02;21.70;41.60
47532;DHT22;33273;52.254;7.988;2023-06-19T02:31:28;21.70;41.40
47532;DHT22;33273;52.254;7.988;2023-06-19T02:33:54;21.80;41.40
47532;DHT22;33273;52.254;7.988;2023-06-19T02:36:20;21.80;41.60
47532;DHT22;33273;52.254;7.988;2023-06-19T02:38:47;21.80;41.00
47532;DHT22;33273;52.254;7.988;2023-06-19T02:41:14;21.80;41.80
47532;DHT22;33273;52.254;7.988;2023-06-19T02:43:44;21.90;41.90
47532;DHT22;33273;52.254;7.988;2023-06-19T02:46:12;21.90;41.20
47532;DHT22;33273;52.254;7.988;2023-06-19T02:48:38;22.00;41.10
47532;DHT22;33273;52.254;7.988;2023-06-19T02:51:04;22.00;41.40
47532;DHT22;33273;52.254;7.988;2023-06-19T02:53:30;22.00;41.70
47532;DHT22;33273;52.254;7.988;2023-06-19T02:55:56;22.00;41.40
47532;DHT22;33273;52.254;7.988;2023-06-19T02:58:22;22.10;41.20
47532;DHT22;33273;52.254;7.988;2023-06-19T03:00:48;22.00;41.10
47532;DHT22;33273;52.254;7.988;2023-06-19T03:03:15;22.00;40.80
47532;DHT22;33273;52.254;7.988;2023-06-19T03:05:41;22.10;41.40
47532;DHT22;33273;52.254;7.988;2023-06-19T03:08:07;22.10;41.10
47532;DHT22;33273;52.254;7.988;2023-06-19T03:10:33;22.10;41.00
47532;DHT22;33273;52.254;7.988;2023-06-19T03:12:59;22.10;40.70
47532;DHT22;33273;52.254;7.988;2023-06-19T03:15:25;22.20;41.20
47532;DHT22;33273;52.254;7.988;2023-06-19T03:17:53;22.10;40.60
47532;DHT22;33273;52.254;7.988;2023-06-19T03:20:20;22.20;40.40
47532;DHT22;33273;52.254;7.988;2023-06-19T03:22:54;22.10;40.90
47532;DHT22;33273;52.254;7.988;2023-06-19T03:25:22;22.10;40.70
47532;DHT22;33273;52.254;7.988;2023-06-19T03:27:48;22.00;42.10
47532;DHT22;33273;52.254;7.988;2023-06-19T03:30:14;22.00;42.60
47532;DHT22;33273;52.254;7.988;2023-06-19T03:32:42;21.90;43.00
47532;DHT22;33273;52.254;7.988;2023-06-19T03:35:15;21.80;44.40
47532;DHT22;33273;52.254;7.988;2023-06-19T03:37:44;21.80;44.30
47532;DHT22;33273;52.254;7.988;2023-06-19T03:40:11;21.70;44.60
47532;DHT22;33273;52.254;7.988;2023-06-19T03:42:41;21.60;44.00
47532;DHT22;33273;52.254;7.988;2023-06-19T03:45:08;21.60;46.30
47532;DHT22;33273;52.254;7.988;2023-06-19T03:47:34;21.50;48.40
47532;DHT22;33273;52.254;7.988;2023-06-19T03:50:01;21.50;48.70
47532;DHT22;33273;52.254;7.988;2023-06-19T03:52:27;21.50;48.70
47532;DHT22;33273;52.254;7.988;2023-06-19T03:54:53;21.30;50.90
47532;DHT22;33273;52.254;7.988;2023-06-19T03:57:19;21.30;51.50
47532;DHT22;33273;52.254;7.988;2023-06-19T03:59:46;21.30;52.90
47532;DHT22;33273;52.254;7.988;2023-06-19T04:02:12;21.20;54.60
47532;DHT22;33273;52.254;7.988;2023-06-19T04:04:37;21.20;52.70
47532;DHT22;33273;52.254;7.988;2023-06-19T04:07:04;21.40;52.90
47532;DHT22;33273;52.254;7.988;2023-06-19T04:09:30;21.40;52.80
47532;DHT22;33273;52.254;7.988;2023-06-19T04:11:56;21.40;54.70
47532;DHT22;33273;52.254;7.988;2023-06-19T04:14:24;21.40;55.00
47532;DHT22;33273;52.254;7.988;2023-06-19T04:16:50;21.30;56.60
47532;DHT22;33273;52.254;7.988;2023-06-19T04:19:17;21.30;56.90
47532;DHT22;33273;52.254;7.988;2023-06-19T04:21:43;21.20;57.30
47532;DHT22;33273;52.254;7.988;2023-06-19T04:24:12;21.30;58.10
47532;DHT22;33273;52.254;7.988;2023-06-19T04:26:38;21.30;58.60
47532;DHT22;33273;52.254;7.988;2023-06-19T04:29:04;21.20;59.20
47532;DHT22;33273;52.254;7.988;2023-06-19T04:31:32;21.20;60.30
47532;DHT22;33273;52.254;7.988;2023-06-19T04:33:58;21.20;57.80
47532;DHT22;33273;52.254;7.988;2023-06-19T04:36:25;21.20;55.20
47532;DHT22;33273;52.254;7.988;2023-06-19T04:38:52;21.20;53.70
47532;DHT22;33273;52.254;7.988;2023-06-19T04:41:18;21.20;54.80
47532;DHT22;33273;52.254;7.988;2023-06-19T04:43:44;21.20;56.00
47532;DHT22;33273;52.254;7.988;2023-06-19T04:46:11;21.20;57.50
47532;DHT22;33273;52.254;7.988;2023-06-19T04:48:37;21.30;57.50
47532;DHT22;33273;52.254;7.988;2023-06-19T04:51:06;21.40;58.10
47532;DHT22;33273;52.254;7.988;2023-06-19T04:53:32;21.70;56.80
47532;DHT22;33273;52.254;7.988;2023-06-19T04:55:58;21.90;56.00
47532;DHT22;33273;52.254;7.988;2023-06-19T04:58:24;22.20;53.00
47532;DHT22;33273;52.254;7.988;2023-06-19T05:00:50;22.50;51.60
47532;DHT22;33273;52.254;7.988;2023-06-19T05:03:17;22.80;50.80
47532;DHT22;33273;52.254;7.988;2023-06-19T05:05:44;23.20;48.40
47532;DHT22;33273;52.254;7.988;2023-06-19T05:08:12;23.60;46.60
47532;DHT22;33273;52.254;7.988;2023-06-19T05:10:39;24.10;45.50
47532;DHT22;33273;52.254;7.988;2023-06-19T05:13:04;24.60;43.20
47532;DHT22;33273;52.254;7.988;2023-06-19T05:15:30;24.80;41.10
47532;DHT22;33273;52.254;7.988;2023-06-19T05:17:56;24.80;40.20
47532;DHT22;33273;52.254;7.988;2023-06-19T05:20:22;25.10;40.80
47532;DHT22;33273;52.254;7.988;2023-06-19T05:22:48;25.20;38.90
47532;DHT22;33273;52.254;7.988;2023-06-19T05:25:14;25.40;38.20
47532;DHT22;33273;52.254;7.988;2023-06-19T05:27:40;25.80;37.20
47532;DHT22;33273;52.254;7.988;2023-06-19T05:30:06;26.20;36.60
47532;DHT22;33273;52.254;7.988;2023-06-19T05:32:33;26.60;35.40
47532;DHT22;33273;52.254;7.988;2023-06-19T05:34:58;26.60;34.60
47532;DHT22;33273;52.254;7.988;2023-06-19T05:37:24;26.90;34.10
47532;DHT22;33273;52.254;7.988;2023-06-19T05:39:50;26.90;33.20
47532;DHT22;33273;52.254;7.988;2023-06-19T05:42:16;26.90;33.60
47532;DHT22;33273;52.254;7.988;2023-06-19T05:44:43;27.60;33.80
47532;DHT22;33273;52.254;7.988;2023-06-19T05:47:09;27.80;32.30
47532;DHT22;33273;52.254;7.988;2023-06-19T05:49:35;27.70;31.50
47532;DHT22;33273;52.254;7.988;2023-06-19T05:52:02;28.20;31.20
47532;DHT22;33273;52.254;7.988;2023-06-19T05:54:28;28.50;30.30
47532;DHT22;33273;52.254;7.988;2023-06-19T05:56:54;28.60;29.80
47532;DHT22;33273;52.254;7.988;2023-06-19T05:59:19;28.80;30.40
47532;DHT22;33273;52.254;7.988;2023-06-19T06:01:49;28.80;29.80
47532;DHT22;33273;52.254;7.988;2023-06-19T06:04:16;29.60;28.50
47532;DHT22;33273;52.254;7.988;2023-06-19T06:06:42;29.20;29.00
47532;DHT22;33273;52.254;7.988;2023-06-19T06:09:08;29.40;28.50
47532;DHT22;33273;52.254;7.988;2023-06-19T06:11:37;29.30;28.70
47532;DHT22;33273;52.254;7.988;2023-06-19T06:14:03;28.90;28.90
47532;DHT22;33273;52.254;7.988;2023-06-19T06:16:29;28.90;29.40
47532;DHT22;33273;52.254;7.988;2023-06-19T06:18:55;28.80;29.70
47532;DHT22;33273;52.254;7.988;2023-06-19T06:21:22;29.00;30.00
47532;DHT22;33273;52.254;7.988;2023-06-19T06:23:48;29.20;29.90
47532;DHT22;33273;52.254;7.988;2023-06-19T06:26:13;29.40;29.00
47532;DHT22;33273;52.254;7.988;2023-06-19T06:28:40;29.50;29.50
47532;DHT22;33273;52.254;7.988;2023-06-19T06:31:07;29.50;28.90
47532;DHT22;33273;52.254;7.988;2023-06-19T06:33:32;28.80;29.90
47532;DHT22;33273;52.254;7.988;2023-06-19T06:35:59;28.80;30.00
47532;DHT22;33273;52.254;7.988;2023-06-19T06:38:25;28.20;31.60
47532;DHT22;33273;52.254;7.988;2023-06-19T06:40:52;27.80;32.10
47532;DHT22;33273;52.254;7.988;2023-06-19T06:43:21;27.20;34.20
47532;DHT22;33273;52.254;7.988;2023-06-19T06:45:47;27.40;35.00
47532;DHT22;33273;52.254;7.988;2023-06-19T06:48:13;27.50;33.50
47532;DHT22;33273;52.254;7.988;2023-06-19T06:50:39;27.60;34.40
47532;DHT22;33273;52.254;7.988;2023-06-19T06:53:06;27.60;34.10
47532;DHT22;33273;52.254;7.988;2023-06-19T06:55:32;28.20;32.70
47532;DHT22;33273;52.254;7.988;2023-06-19T06:57:59;27.90;33.00
47532;DHT22;33273;52.254;7.988;2023-06-19T07:00:25;27.90;33.50
47532;DHT22;33273;52.254;7.988;2023-06-19T07:02:51;27.90;33.30
47532;DHT22;33273;52.254;7.988;2023-06-19T07:05:17;28.10;33.30
47532;DHT22;33273;52.254;7.988;2023-06-19T07:07:43;27.80;33.20
47532;DHT22;33273;52.254;7.988;2023-06-19T07:10:09;27.60;33.30
47532;DHT22;33273;52.254;7.988;2023-06-19T07:12:35;27.80;33.50
47532;DHT22;33273;52.254;7.988;2023-06-19T07:15:03;27.40;33.80
47532;DHT22;33273;52.254;7.988;2023-06-19T07:17:29;27.20;34.80
47532;DHT22;33273;52.254;7.988;2023-06-19T07:19:55;27.00;34.20
47532;DHT22;33273;52.254;7.988;2023-06-19T07:22:21;26.70;35.00
47532;DHT22;33273;52.254;7.988;2023-06-19T07:24:46;26.70;35.70
47532;DHT22;33273;52.254;7.988;2023-06-19T07:27:12;26.50;36.10
47532;DHT22;33273;52.254;7.988;2023-06-19T07:29:38;26.50;36.50
47532;DHT22;33273;52.254;7.988;2023-06-19T07:32:07;26.40;36.10
47532;DHT22;33273;52.254;7.988;2023-06-19T07:34:33;26.40;36.30
47532;DHT22;33273;52.254;7.988;2023-06-19T07:37:02;26.50;37.30
47532;DHT22;33273;52.254;7.988;2023-06-19T07:39:28;26.40;36.70
47532;DHT22;33273;52.254;7.988;2023-06-19T07:41:54;26.50;37.10
47532;DHT22;33273;52.254;7.988;2023-06-19T07:44:20;26.40;36.40
47532;DHT22;33273;52.254;7.988;2023-06-19T07:46:46;26.10;37.80
47532;DHT22;33273;52.254;7.988;2023-06-19T07:49:12;25.80;37.40
47532;DHT22;33273;52.254;7.988;2023-06-19T07:51:38;25.80;38.80
47532;DHT22;33273;52.254;7.988;2023-06-19T07:54:04;25.80;38.30
47532;DHT22;33273;52.254;7.988;2023-06-19T07:56:30;25.70;38.30
47532;DHT22;33273;52.254;7.988;2023-06-19T07:58:55;25.40;38.50
47532;DHT22;33273;52.254;7.988;2023-06-19T08:01:21;25.50;38.80
47532;DHT22;33273;52.254;7.988;2023-06-19T08:03:47;25.50;38.30
47532;DHT22;33273;52.254;7.988;2023-06-19T08:06:13;25.40;38.40
47532;DHT22;33273;52.254;7.988;2023-06-19T08:08:39;25.30;38.90
47532;DHT22;33273;52.254;7.988;2023-06-19T08:11:04;25.10;39.00
47532;DHT22;33273;52.254;7.988;2023-06-19T08:13:30;25.00;40.60
47532;DHT22;33273;52.254;7.988;2023-06-19T08:15:56;25.00;41.00
47532;DHT22;33273;52.254;7.988;2023-06-19T08:18:22;25.00;41.40
47532;DHT22;33273;52.254;7.988;2023-06-19T08:20:48;25.10;41.90
47532;DHT22;33273;52.254;7.988;2023-06-19T08:23:14;25.10;41.20
47532;DHT22;33273;52.254;7.988;2023-06-19T08:25:39;25.10;40.90
47532;DHT22;33273;52.254;7.988;2023-06-19T08:28:06;25.20;41.70
47532;DHT22;33273;52.254;7.988;2023-06-19T08:30:33;25.20;40.40
47532;DHT22;33273;52.254;7.988;2023-06-19T08:32:58;25.10;41.20
47532;DHT22;33273;52.254;7.988;2023-06-19T08:35:24;25.00;40.80
47532;DHT22;33273;52.254;7.988;2023-06-19T08:37:50;24.80;41.20
47532;DHT22;33273;52.254;7.988;2023-06-19T08:40:16;24.70;42.00
47532;DHT22;33273;52.254;7.988;2023-06-19T08:42:42;24.70;42.40
47532;DHT22;33273;52.254;7.988;2023-06-19T08:45:09;24.90;43.30
47532;DHT22;33273;52.254;7.988;2023-06-19T08:47:37;24.90;42.70
47532;DHT22;33273;52.254;7.988;2023-06-19T08:50:05;24.80;42.00
47532;DHT22;33273;52.254;7.988;2023-06-19T08:52:31;24.70;42.70
47532;DHT22;33273;52.254;7.988;2023-06-19T08:54:58;24.80;42.70
47532;DHT22;33273;52.254;7.988;2023-06-19T08:57:35;24.70;43.00
47532;DHT22;33273;52.254;7.988;2023-06-19T09:00:02;24.70;42.90
47532;DHT22;33273;52.254;7.988;2023-06-19T09:02:41;24.60;43.80
47532;DHT22;33273;52.254;7.988;2023-06-19T09:05:12;24.60;45.50
47532;DHT22;33273;52.254;7.988;2023-06-19T09:07:38;24.60;46.20
47532;DHT22;33273;52.254;7.988;2023-06-19T09:10:15;24.70;46.50
47532;DHT22;33273;52.254;7.988;2023-06-19T09:12:43;24.80;45.50
47532;DHT22;33273;52.254;7.988;2023-06-19T09:15:14;24.80;45.10
47532;DHT22;33273;52.254;7.988;2023-06-19T09:17:40;24.90;45.50
47532;DHT22;33273;52.254;7.988;2023-06-19T09:20:26;25.10;45.90
47532;DHT22;33273;52.254;7.988;2023-06-19T09:22:55;25.00;44.60
47532;DHT22;33273;52.254;7.988;2023-06-19T09:25:21;25.00;44.80
47532;DHT22;33273;52.254;7.988;2023-06-19T09:27:49;25.00;44.90
47532;DHT22;33273;52.254;7.988;2023-06-19T09:30:18;24.90;45.00
47532;DHT22;33273;52.254;7.988;2023-06-19T09:32:45;24.90;45.60
47532;DHT22;33273;52.254;7.988;2023-06-19T09:35:11;24.90;45.80
47532;DHT22;33273;52.254;7.988;2023-06-19T09:37:38;24.90;45.30
47532;DHT22;33273;52.254;7.988;2023-06-19T09:40:06;24.80;45.10
47532;DHT22;33273;52.254;7.988;2023-06-19T09:42:46;24.80;44.90
47532;DHT22;33273;52.254;7.988;2023-06-19T09:45:20;24.60;45.10
47532;DHT22;33273;52.254;7.988;2023-06-19T09:47:52;24.60;46.00
47532;DHT22;33273;52.254;7.988;2023-06-19T09:50:22;24.60;46.10
47532;DHT22;33273;52.254;7.988;2023-06-19T09:52:49;24.60;45.90
47532;DHT22;33273;52.254;7.988;2023-06-19T09:55:19;24.60;46.10
47532;DHT22;33273;52.254;7.988;2023-06-19T09:57:46;24.70;45.90
47532;DHT22;33273;52.254;7.988;2023-06-19T10:00:15;24.60;45.90
47532;DHT22;33273;52.254;7.988;2023-06-19T10:02:47;24.60;46.40
47532;DHT22;33273;52.254;7.988;2023-06-19T10:05:13;24.60;46.50
47532;DHT22;33273;52.254;7.988;2023-06-19T10:07:45;24.60;45.70
47532;DHT22;33273;52.254;7.988;2023-06-19T10:10:22;24.50;45.50
47532;DHT22;33273;52.254;7.988;2023-06-19T10:12:48;24.60;46.00
47532;DHT22;33273;52.254;7.988;2023-06-19T10:15:26;24.70;45.10
47532;DHT22;33273;52.254;7.988;2023-06-19T10:18:03;24.60;44.30
47532;DHT22;33273;52.254;7.988;2023-06-19T10:20:37;24.70;46.00
47532;DHT22;33273;52.254;7.988;2023-06-19T10:23:15;24.60;44.80
47532;DHT22;33273;52.254;7.988;2023-06-19T10:25:47;24.50;44.60
47532;DHT22;33273;52.254;7.988;2023-06-19T10:28:21;24.40;44.80
47532;DHT22;33273;52.254;7.988;2023-06-19T10:30:56;24.50;45.30
47532;DHT22;33273;52.254;7.988;2023-06-19T10:33:33;24.50;45.30
47532;DHT22;33273;52.254;7.988;2023-06-19T10:36:01;24.50;45.80
47532;DHT22;33273;52.254;7.988;2023-06-19T10:38:28;24.50;45.30
47532;DHT22;33273;52.254;7.988;2023-06-19T10:40:54;24.60;47.20
47532;DHT22;33273;52.254;7.988;2023-06-19T10:43:21;24.60;46.90
47532;DHT22;33273;52.254;7.988;2023-06-19T10:45:48;24.60;44.90
47532;DHT22;33273;52.254;7.988;2023-06-19T10:48:19;24.60;45.60
47532;DHT22;33273;52.254;7.988;2023-06-19T10:50:47;24.80;46.20
47532;DHT22;33273;52.254;7.988;2023-06-19T10:53:24;25.00;45.80
47532;DHT22;33273;52.254;7.988;2023-06-19T10:55:57;25.00;44.40
47532;DHT22;33273;52.254;7.988;2023-06-19T10:58:25;25.20;45.50
47532;DHT22;33273;52.254;7.988;2023-06-19T11:00:51;25.30;44.30
47532;DHT22;33273;52.254;7.988;2023-06-19T11:03:18;25.40;43.00
47532;DHT22;33273;52.254;7.988;2023-06-19T11:05:45;25.70;42.10
47532;DHT22;33273;52.254;7.988;2023-06-19T11:08:10;25.80;41.40
47532;DHT22;33273;52.254;7.988;2023-06-19T11:10:36;25.90;42.50
47532;DHT22;33273;52.254;7.988;2023-06-19T11:13:02;26.00;41.00
47532;DHT22;33273;52.254;7.988;2023-06-19T11:15:30;26.10;40.50
47532;DHT22;33273;52.254;7.988;2023-06-19T11:17:58;26.20;40.50
47532;DHT22;33273;52.254;7.988;2023-06-19T11:20:24;26.20;40.30
47532;DHT22;33273;52.254;7.988;2023-06-19T11:22:58;26.10;39.40
47532;DHT22;33273;52.254;7.988;2023-06-19T11:25:38;26.10;40.10
47532;DHT22;33273;52.254;7.988;2023-06-19T11:28:10;26.20;41.00
47532;DHT22;33273;52.254;7.988;2023-06-19T11:30:37;26.50;39.40
47532;DHT22;33273;52.254;7.988;2023-06-19T11:33:03;26.70;38.80
47532;DHT22;33273;52.254;7.988;2023-06-19T11:35:34;26.80;37.70
47532;DHT22;33273;52.254;7.988;2023-06-19T11:38:02;26.80;37.40
47532;DHT22;33273;52.254;7.988;2023-06-19T11:40:32;26.80;37.10
47532;DHT22;33273;52.254;7.988;2023-06-19T11:43:03;27.00;37.30
47532;DHT22;33273;52.254;7.988;2023-06-19T11:45:31;26.90;37.30
47532;DHT22;33273;52.254;7.988;2023-06-19T11:47:58;26.90;37.10
47532;DHT22;33273;52.254;7.988;2023-06-19T11:50:28;27.00;36.50
47532;DHT22;33273;52.254;7.988;2023-06-19T11:52:54;26.90;36.50
47532;DHT22;33273;52.254;7.988;2023-06-19T11:55:20;26.60;37.30
47532;DHT22;33273;52.254;7.988;2023-06-19T11:57:46;26.70;38.80
47532;DHT22;33273;52.254;7.988;2023-06-19T12:00:16;27.00;37.60
47532;DHT22;33273;52.254;7.988;2023-06-19T12:02:45;27.00;36.90
47532;DHT22;33273;52.254;7.988;2023-06-19T12:05:13;27.10;36.50
47532;DHT22;33273;52.254;7.988;2023-06-19T12:07:39;27.30;36.50
47532;DHT22;33273;52.254;7.988;2023-06-19T12:10:07;27.50;35.70
47532;DHT22;33273;52.254;7.988;2023-06-19T12:12:36;27.40;36.00
47532;DHT22;33273;52.254;7.988;2023-06-19T12:15:04;27.70;35.80
47532;DHT22;33273;52.254;7.988;2023-06-19T12:17:31;28.00;35.00
47532;DHT22;33273;52.254;7.988;2023-06-19T12:19:57;28.00;33.30
47532;DHT22;33273;52.254;7.988;2023-06-19T12:22:23;27.90;33.30
47532;DHT22;33273;52.254;7.988;2023-06-19T12:24:48;27.80;33.30
47532;DHT22;33273;52.254;7.988;2023-06-19T12:27:14;28.20;33.80
47532;DHT22;33273;52.254;7.988;2023-06-19T12:29:41;28.40;32.90
47532;DHT22;33273;52.254;7.988;2023-06-19T12:32:07;28.50;31.40
47532;DHT22;33273;52.254;7.988;2023-06-19T12:34:34;28.50;31.20
47532;DHT22;33273;52.254;7.988;2023-06-19T12:37:00;28.50;30.70
47532;DHT22;33273;52.254;7.988;2023-06-19T12:39:26;28.70;30.80
47532;DHT22;33273;52.254;7.988;2023-06-19T12:41:52;28.50;29.30
47532;DHT22;33273;52.254;7.988;2023-06-19T12:44:20;28.40;30.30
47532;DHT22;33273;52.254;7.988;2023-06-19T12:46:46;28.60;29.20
47532;DHT22;33273;52.254;7.988;2023-06-19T12:49:12;28.40;29.60
47532;DHT22;33273;52.254;7.988;2023-06-19T12:51:38;28.60;30.00
47532;DHT22;33273;52.254;7.988;2023-06-19T12:54:04;28.60;28.90
47532;DHT22;33273;52.254;7.988;2023-06-19T12:56:30;28.60;29.10
47532;DHT22;33273;52.254;7.988;2023-06-19T12:58:56;28.50;29.50
47532;DHT22;33273;52.254;7.988;2023-06-19T13:01:22;28.50;30.10
47532;DHT22;33273;52.254;7.988;2023-06-19T13:03:48;28.60;30.20
47532;DHT22;33273;52.254;7.988;2023-06-19T13:06:14;28.70;29.60
47532;DHT22;33273;52.254;7.988;2023-06-19T13:08:40;28.80;29.70
47532;DHT22;33273;52.254;7.988;2023-06-19T13:11:07;28.90;30.00
47532;DHT22;33273;52.254;7.988;2023-06-19T13:13:33;28.80;29.00
47532;DHT22;33273;52.254;7.988;2023-06-19T13:15:59;28.70;29.40
47532;DHT22;33273;52.254;7.988;2023-06-19T13:18:25;28.80;29.80
47532;DHT22;33273;52.254;7.988;2023-06-19T13:20:50;28.60;29.20
47532;DHT22;33273;52.254;7.988;2023-06-19T13:23:16;28.50;29.60
47532;DHT22;33273;52.254;7.988;2023-06-19T13:25:42;28.60;29.90
47532;DHT22;33273;52.254;7.988;2023-06-19T13:28:08;28.50;29.90
47532;DHT22;33273;52.254;7.988;2023-06-19T13:30:34;28.20;30.00
47532;DHT22;33273;52.254;7.988;2023-06-19T13:33:00;28.10;29.80
47532;DHT22;33273;52.254;7.988;2023-06-19T13:35:25;28.20;29.40
47532;DHT22;33273;52.254;7.988;2023-06-19T13:37:51;28.20;28.90
47532;DHT22;33273;52.254;7.988;2023-06-19T13:40:18;28.20;29.10
47532;DHT22;33273;52.254;7.988;2023-06-19T13:42:44;28.20;28.70
47532;DHT22;33273;52.254;7.988;2023-06-19T13:45:10;28.30;28.00
47532;DHT22;33273;52.254;7.988;2023-06-19T13:47:36;28.20;28.60
47532;DHT22;33273;52.254;7.988;2023-06-19T13:50:04;28.00;28.80
47532;DHT22;33273;52.254;7.988;2023-06-19T13:52:30;28.20;29.40
47532;DHT22;33273;52.254;7.988;2023-06-19T13:54:56;28.20;29.40
47532;DHT22;33273;52.254;7.988;2023-06-19T13:57:22;28.20;29.50
47532;DHT22;33273;52.254;7.988;2023-06-19T13:59:48;28.10;29.30
47532;DHT22;33273;52.254;7.988;2023-06-19T14:02:14;28.00;29.80
47532;DHT22;33273;52.254;7.988;2023-06-19T14:04:40;28.10;30.00
47532;DHT22;33273;52.254;7.988;2023-06-19T14:07:07;28.30;29.30
47532;DHT22;33273;52.254;7.988;2023-06-19T14:09:33;28.50;30.20
47532;DHT22;33273;52.254;7.988;2023-06-19T14:11:59;28.60;29.00
47532;DHT22;33273;52.254;7.988;2023-06-19T14:14:25;28.70;28.80
47532;DHT22;33273;52.254;7.988;2023-06-19T14:16:51;28.80;28.50
47532;DHT22;33273;52.254;7.988;2023-06-19T14:19:17;28.70;28.60
47532;DHT22;33273;52.254;7.988;2023-06-19T14:21:42;28.70;28.80
47532;DHT22;33273;52.254;7.988;2023-06-19T14:24:08;28.80;28.10
47532;DHT22;33273;52.254;7.988;2023-06-19T14:26:34;28.80;27.60
47532;DHT22;33273;52.254;7.988;2023-06-19T14:29:00;28.70;27.50
47532;DHT22;33273;52.254;7.988;2023-06-19T14:31:27;28.50;28.00
47532;DHT22;33273;52.254;7.988;2023-06-19T14:33:54;28.50;29.20
47532;DHT22;33273;52.254;7.988;2023-06-19T14:36:20;28.60;28.60
47532;DHT22;33273;52.254;7.988;2023-06-19T14:38:45;28.60;28.10
47532;DHT22;33273;52.254;7.988;2023-06-19T14:41:11;28.70;27.70
47532;DHT22;33273;52.254;7.988;2023-06-19T14:43:37;28.60;27.30
47532;DHT22;33273;52.254;7.988;2023-06-19T14:46:03;28.30;27.90
47532;DHT22;33273;52.254;7.988;2023-06-19T14:48:30;28.20;28.20
47532;DHT22;33273;52.254;7.988;2023-06-19T14:50:56;28.00;29.10
47532;DHT22;33273;52.254;7.988;2023-06-19T14:53:22;28.10;28.80
47532;DHT22;33273;52.254;7.988;2023-06-19T14:55:48;28.30;29.00
47532;DHT22;33273;52.254;7.988;2023-06-19T14:58:14;28.40;28.90
47532;DHT22;33273;52.254;7.988;2023-06-19T15:00:41;28.40;28.20
47532;DHT22;33273;52.254;7.988;2023-06-19T15:03:07;28.30;28.00
47532;DHT22;33273;52.254;7.988;2023-06-19T15:05:33;28.10;28.20
47532;DHT22;33273;52.254;7.988;2023-06-19T15:07:59;28.00;27.90
47532;DHT22;33273;52.254;7.988;2023-06-19T15:10:27;27.90;28.20
47532;DHT22;33273;52.254;7.988;2023-06-19T15:12:54;28.00;28.10
47532;DHT22;33273;52.254;7.988;2023-06-19T15:15:20;28.00;28.80
47532;DHT22;33273;52.254;7.988;2023-06-19T15:17:45;27.90;28.80
47532;DHT22;33273;52.254;7.988;2023-06-19T15:20:12;27.80;28.40
47532;DHT22;33273;52.254;7.988;2023-06-19T15:22:39;27.80;28.20
47532;DHT22;33273;52.254;7.988;2023-06-19T15:25:06;27.80;28.40
47532;DHT22;33273;52.254;7.988;2023-06-19T15:27:32;28.00;29.40
47532;DHT22;33273;52.254;7.988;2023-06-19T15:29:58;28.10;28.20
47532;DHT22;33273;52.254;7.988;2023-06-19T15:32:27;28.20;28.10